LHA2MK KMWH-KPAE
Flight info
| Callsign | LHA2MK |
|---|---|
| Flight time | 0h 33m |
| Altitude | 16000 |
| Route | TUNNL |
| Aircraft | B737/M-SDE1E2FGIRWYZ/S |
Departure
| Time | 2026-04-21 13:58 |
|---|---|
| Airport | Grant County International Airport (KMWH) |
Arrival
| Time | 2026-04-21 14:31 |
|---|---|
| Airport | Seattle Paine Field International Airport (KPAE) |
| Time | Latitude | Longitude | Altitude | Speed | Heading |
|---|---|---|---|---|---|
| 2026-04-21 13:55 | 47.19161 | -119.31352 | 1168 ft | 7 kts | 88° |
| 2026-04-21 13:56 | 47.19162 | -119.31282 | 1171 ft | 7 kts | 88° |
| 2026-04-21 13:56 | 47.19163 | -119.31213 | 1171 ft | 7 kts | 90° |
| 2026-04-21 13:56 | 47.19164 | -119.31146 | 1169 ft | 7 kts | 80° |
| 2026-04-21 13:56 | 47.19189 | -119.31093 | 1169 ft | 6 kts | 35° |
| 2026-04-21 13:57 | 47.19231 | -119.31082 | 1169 ft | 7 kts | 348° |
| 2026-04-21 13:57 | 47.19416 | -119.31170 | 1170 ft | 64 kts | 343° |
| 2026-04-21 13:57 | 47.20082 | -119.31482 | 1177 ft | 133 kts | 343° |
| 2026-04-21 13:57 | 47.21047 | -119.32018 | 1604 ft | 147 kts | 331° |
| 2026-04-21 13:58 | 47.21908 | -119.32768 | 2391 ft | 155 kts | 331° |
| 2026-04-21 13:58 | 47.22762 | -119.33994 | 2703 ft | 188 kts | 305° |
| 2026-04-21 13:58 | 47.23514 | -119.35680 | 3290 ft | 204 kts | 305° |
| 2026-04-21 13:58 | 47.24313 | -119.37480 | 3917 ft | 216 kts | 305° |
| 2026-04-21 13:59 | 47.25138 | -119.39352 | 4572 ft | 226 kts | 304° |
| 2026-04-21 13:59 | 47.26001 | -119.41326 | 5263 ft | 232 kts | 304° |
| 2026-04-21 13:59 | 47.26882 | -119.43354 | 5979 ft | 237 kts | 303° |
| 2026-04-21 13:59 | 47.27774 | -119.45416 | 6692 ft | 240 kts | 303° |
| 2026-04-21 14:00 | 47.28686 | -119.47532 | 7292 ft | 257 kts | 302° |
| 2026-04-21 14:00 | 47.29706 | -119.49906 | 7622 ft | 290 kts | 302° |
| 2026-04-21 14:00 | 47.30806 | -119.52473 | 8449 ft | 301 kts | 301° |
| 2026-04-21 14:00 | 47.31930 | -119.55101 | 9487 ft | 306 kts | 301° |
| 2026-04-21 14:01 | 47.33073 | -119.57779 | 10460 ft | 313 kts | 300° |
| 2026-04-21 14:01 | 47.34269 | -119.60593 | 11012 ft | 335 kts | 300° |
| 2026-04-21 14:01 | 47.35526 | -119.63551 | 11833 ft | 344 kts | 300° |
| 2026-04-21 14:01 | 47.36800 | -119.66550 | 12870 ft | 347 kts | 299° |
| 2026-04-21 14:02 | 47.38086 | -119.69579 | 13925 ft | 350 kts | 298° |
| 2026-04-21 14:02 | 47.39384 | -119.72640 | 14882 ft | 354 kts | 298° |
| 2026-04-21 14:02 | 47.40696 | -119.75736 | 15624 ft | 354 kts | 298° |
| 2026-04-21 14:03 | 47.43320 | -119.81941 | 15973 ft | 358 kts | 297° |
| 2026-04-21 14:03 | 47.44634 | -119.85051 | 15975 ft | 356 kts | 297° |
| 2026-04-21 14:03 | 47.45944 | -119.88154 | 15980 ft | 356 kts | 297° |
| 2026-04-21 14:03 | 47.47251 | -119.91257 | 15975 ft | 355 kts | 297° |
| 2026-04-21 14:04 | 47.48554 | -119.94352 | 15980 ft | 354 kts | 297° |
| 2026-04-21 14:04 | 47.49852 | -119.97441 | 15983 ft | 354 kts | 297° |
| 2026-04-21 14:04 | 47.51151 | -120.00537 | 16018 ft | 354 kts | 297° |
| 2026-04-21 14:04 | 47.52451 | -120.03639 | 16011 ft | 355 kts | 297° |
| 2026-04-21 14:05 | 47.53751 | -120.06743 | 16020 ft | 355 kts | 297° |
| 2026-04-21 14:05 | 47.55052 | -120.09855 | 16011 ft | 356 kts | 297° |
| 2026-04-21 14:05 | 47.56354 | -120.12972 | 16017 ft | 356 kts | 297° |
| 2026-04-21 14:05 | 47.57659 | -120.16098 | 16011 ft | 357 kts | 297° |
| 2026-04-21 14:06 | 47.58965 | -120.19231 | 15996 ft | 357 kts | 297° |
| 2026-04-21 14:06 | 47.60266 | -120.22357 | 16015 ft | 356 kts | 297° |
| 2026-04-21 14:06 | 47.61567 | -120.25486 | 16008 ft | 357 kts | 297° |
| 2026-04-21 14:06 | 47.62868 | -120.28615 | 16016 ft | 357 kts | 297° |
| 2026-04-21 14:07 | 47.64170 | -120.31751 | 16003 ft | 356 kts | 297° |
| 2026-04-21 14:07 | 47.65461 | -120.34869 | 16016 ft | 355 kts | 297° |
| 2026-04-21 14:07 | 47.66755 | -120.37990 | 16000 ft | 354 kts | 297° |
| 2026-04-21 14:07 | 47.68034 | -120.41092 | 16044 ft | 351 kts | 297° |
| 2026-04-21 14:08 | 47.69318 | -120.44204 | 16018 ft | 355 kts | 297° |
| 2026-04-21 14:08 | 47.70612 | -120.47339 | 16006 ft | 357 kts | 297° |
| 2026-04-21 14:08 | 47.71906 | -120.50480 | 16025 ft | 357 kts | 297° |
| 2026-04-21 14:08 | 47.73206 | -120.53635 | 16019 ft | 358 kts | 297° |
| 2026-04-21 14:09 | 47.74504 | -120.56791 | 16020 ft | 358 kts | 297° |
| 2026-04-21 14:09 | 47.75785 | -120.59908 | 16024 ft | 358 kts | 297° |
| 2026-04-21 14:09 | 47.77096 | -120.63103 | 16020 ft | 357 kts | 297° |
| 2026-04-21 14:09 | 47.78373 | -120.66217 | 16021 ft | 356 kts | 297° |
| 2026-04-21 14:10 | 47.79659 | -120.69360 | 16026 ft | 356 kts | 297° |
| 2026-04-21 14:10 | 47.80943 | -120.72497 | 16030 ft | 354 kts | 297° |
| 2026-04-21 14:10 | 47.82221 | -120.75629 | 16029 ft | 355 kts | 297° |
| 2026-04-21 14:10 | 47.83501 | -120.78770 | 16024 ft | 355 kts | 297° |
| 2026-04-21 14:11 | 47.84783 | -120.81918 | 16037 ft | 356 kts | 297° |
| 2026-04-21 14:11 | 47.86069 | -120.85080 | 16027 ft | 357 kts | 297° |
| 2026-04-21 14:11 | 47.87357 | -120.88249 | 16029 ft | 358 kts | 297° |
| 2026-04-21 14:11 | 47.88641 | -120.91413 | 16028 ft | 357 kts | 297° |
| 2026-04-21 14:12 | 47.89923 | -120.94576 | 16022 ft | 357 kts | 297° |
| 2026-04-21 14:12 | 47.91204 | -120.97735 | 16025 ft | 356 kts | 297° |
| 2026-04-21 14:12 | 47.92486 | -121.00901 | 16041 ft | 356 kts | 297° |
| 2026-04-21 14:12 | 47.93768 | -121.04073 | 16055 ft | 357 kts | 297° |
| 2026-04-21 14:13 | 47.95052 | -121.07250 | 16045 ft | 357 kts | 297° |
| 2026-04-21 14:13 | 47.96331 | -121.10425 | 16038 ft | 357 kts | 297° |
| 2026-04-21 14:13 | 47.97605 | -121.13599 | 16046 ft | 356 kts | 295° |
| 2026-04-21 14:13 | 47.98587 | -121.16963 | 16040 ft | 351 kts | 283° |
| 2026-04-21 14:14 | 47.99114 | -121.20494 | 16079 ft | 347 kts | 272° |
| 2026-04-21 14:14 | 47.99238 | -121.24058 | 16076 ft | 342 kts | 266° |
| 2026-04-21 14:14 | 47.99255 | -121.27595 | 16063 ft | 341 kts | 265° |
| 2026-04-21 14:14 | 47.99249 | -121.31125 | 16030 ft | 340 kts | 265° |
| 2026-04-21 14:15 | 47.99246 | -121.34729 | 15438 ft | 350 kts | 265° |
| 2026-04-21 14:15 | 47.99261 | -121.38381 | 14826 ft | 353 kts | 266° |
| 2026-04-21 14:15 | 47.99277 | -121.42053 | 14171 ft | 353 kts | 266° |
| 2026-04-21 14:15 | 47.99299 | -121.45700 | 13573 ft | 350 kts | 266° |
| 2026-04-21 14:16 | 47.99322 | -121.49325 | 12851 ft | 348 kts | 266° |
| 2026-04-21 14:16 | 47.99344 | -121.52914 | 12213 ft | 347 kts | 267° |
| 2026-04-21 14:16 | 47.99365 | -121.56511 | 11557 ft | 345 kts | 267° |
| 2026-04-21 14:16 | 47.99384 | -121.60086 | 10921 ft | 345 kts | 268° |
| 2026-04-21 14:17 | 47.99400 | -121.63664 | 10325 ft | 345 kts | 268° |
| 2026-04-21 14:17 | 47.99355 | -121.67163 | 10187 ft | 328 kts | 261° |
| 2026-04-21 14:17 | 47.98928 | -121.70422 | 10036 ft | 313 kts | 253° |
| 2026-04-21 14:17 | 47.98396 | -121.73508 | 9921 ft | 298 kts | 253° |
| 2026-04-21 14:18 | 47.97898 | -121.76460 | 9427 ft | 298 kts | 253° |
| 2026-04-21 14:18 | 47.97403 | -121.79525 | 8755 ft | 307 kts | 255° |
| 2026-04-21 14:18 | 47.96916 | -121.82643 | 8210 ft | 308 kts | 257° |
| 2026-04-21 14:18 | 47.96690 | -121.85847 | 7716 ft | 307 kts | 268° |
| 2026-04-21 14:19 | 47.96703 | -121.88987 | 7249 ft | 306 kts | 271° |
| 2026-04-21 14:19 | 47.96754 | -121.92148 | 6770 ft | 304 kts | 271° |
| 2026-04-21 14:19 | 47.96796 | -121.95297 | 6301 ft | 303 kts | 271° |
| 2026-04-21 14:19 | 47.96818 | -121.98428 | 5813 ft | 301 kts | 271° |
| 2026-04-21 14:20 | 47.96826 | -122.01533 | 5331 ft | 298 kts | 270° |
| 2026-04-21 14:20 | 47.96824 | -122.04555 | 5188 ft | 284 kts | 270° |
| 2026-04-21 14:20 | 47.96819 | -122.07437 | 5051 ft | 271 kts | 270° |
| 2026-04-21 14:20 | 47.96815 | -122.10172 | 5003 ft | 256 kts | 271° |
| 2026-04-21 14:21 | 47.96969 | -122.12723 | 4975 ft | 240 kts | 290° |
| 2026-04-21 14:21 | 47.97842 | -122.14711 | 5008 ft | 227 kts | 320° |
| 2026-04-21 14:21 | 47.99168 | -122.15925 | 5001 ft | 223 kts | 341° |
| 2026-04-21 14:21 | 48.00682 | -122.16318 | 5007 ft | 222 kts | 359° |
| 2026-04-21 14:22 | 48.02226 | -122.16357 | 5010 ft | 222 kts | 360° |
| 2026-04-21 14:22 | 48.03772 | -122.16387 | 5003 ft | 223 kts | 360° |
| 2026-04-21 14:22 | 48.05324 | -122.16419 | 4978 ft | 224 kts | 360° |
| 2026-04-21 14:22 | 48.06912 | -122.16476 | 4744 ft | 230 kts | 358° |
| 2026-04-21 14:23 | 48.08496 | -122.16548 | 4525 ft | 226 kts | 358° |
| 2026-04-21 14:23 | 48.10049 | -122.16636 | 4331 ft | 221 kts | 357° |
| 2026-04-21 14:23 | 48.11573 | -122.16733 | 4187 ft | 219 kts | 356° |
| 2026-04-21 14:23 | 48.13092 | -122.16836 | 4064 ft | 219 kts | 356° |
| 2026-04-21 14:24 | 48.14610 | -122.16941 | 3965 ft | 218 kts | 356° |
| 2026-04-21 14:24 | 48.16114 | -122.17197 | 3871 ft | 219 kts | 340° |
| 2026-04-21 14:24 | 48.17336 | -122.18497 | 3820 ft | 219 kts | 305° |
| 2026-04-21 14:24 | 48.17856 | -122.20628 | 3754 ft | 222 kts | 271° |
| 2026-04-21 14:25 | 48.17489 | -122.22838 | 3689 ft | 222 kts | 237° |
| 2026-04-21 14:25 | 48.16409 | -122.24449 | 3654 ft | 219 kts | 217° |
| 2026-04-21 14:25 | 48.15172 | -122.25789 | 3607 ft | 219 kts | 215° |
| 2026-04-21 14:25 | 48.13929 | -122.27095 | 3568 ft | 218 kts | 215° |
| 2026-04-21 14:26 | 48.12681 | -122.28393 | 3509 ft | 217 kts | 212° |
| 2026-04-21 14:26 | 48.11286 | -122.28986 | 3435 ft | 206 kts | 178° |
| 2026-04-21 14:26 | 48.09899 | -122.28914 | 3389 ft | 194 kts | 181° |
| 2026-04-21 14:26 | 48.08602 | -122.28927 | 3255 ft | 188 kts | 180° |
| 2026-04-21 14:27 | 48.07316 | -122.28916 | 3077 ft | 180 kts | 180° |
| 2026-04-21 14:27 | 48.06113 | -122.28896 | 3008 ft | 166 kts | 180° |
| 2026-04-21 14:27 | 48.04992 | -122.28867 | 2987 ft | 161 kts | 180° |
| 2026-04-21 14:27 | 48.03851 | -122.28851 | 2914 ft | 166 kts | 179° |
| 2026-04-21 14:28 | 48.02711 | -122.28822 | 2679 ft | 160 kts | 178° |
| 2026-04-21 14:28 | 48.01633 | -122.28795 | 2479 ft | 152 kts | 178° |
| 2026-04-21 14:28 | 48.00593 | -122.28783 | 2313 ft | 148 kts | 180° |
| 2026-04-21 14:28 | 47.99608 | -122.28781 | 2086 ft | 138 kts | 181° |
| 2026-04-21 14:29 | 47.98665 | -122.28765 | 1805 ft | 131 kts | 178° |
| 2026-04-21 14:29 | 47.97779 | -122.28729 | 1569 ft | 123 kts | 178° |
| 2026-04-21 14:29 | 47.96990 | -122.28697 | 1439 ft | 106 kts | 178° |
| 2026-04-21 14:29 | 47.96201 | -122.28681 | 1338 ft | 117 kts | 179° |
| 2026-04-21 14:30 | 47.95388 | -122.28662 | 1275 ft | 118 kts | 179° |
| 2026-04-21 14:30 | 47.94563 | -122.28646 | 1082 ft | 119 kts | 179° |
| 2026-04-21 14:30 | 47.93729 | -122.28627 | 924 ft | 120 kts | 175° |
| 2026-04-21 14:30 | 47.92892 | -122.28604 | 779 ft | 124 kts | 177° |
| 2026-04-21 14:31 | 47.92326 | -122.28584 | 685 ft | 118 kts | 177° |
| 2026-04-21 14:31 | 47.91549 | -122.28571 | 570 ft | 102 kts | 178° |
| 2026-04-21 14:31 | 47.91060 | -122.28562 | 574 ft | 34 kts | 181° |
| 2026-04-21 14:31 | 47.90938 | -122.28517 | 572 ft | 11 kts | 136° |
| 2026-04-21 14:32 | 47.90884 | -122.28433 | 571 ft | 11 kts | 131° |
| 2026-04-21 14:32 | 47.90876 | -122.28419 | 569 ft | 0 kts | 131° |
| 2026-04-21 14:32 | 47.90873 | -122.28407 | 569 ft | 2 kts | 106° |
| 2026-04-21 14:32 | 47.90876 | -122.28382 | 570 ft | 4 kts | 72° |
| 2026-04-21 14:33 | 47.90928 | -122.28347 | 569 ft | 13 kts | 359° |
| 2026-04-21 14:33 | 47.91025 | -122.28347 | 570 ft | 14 kts | 0° |
| 2026-04-21 14:33 | 47.91122 | -122.28348 | 568 ft | 14 kts | 359° |
| 2026-04-21 14:33 | 47.91215 | -122.28347 | 572 ft | 13 kts | 1° |
| 2026-04-21 14:34 | 47.91304 | -122.28350 | 570 ft | 13 kts | 357° |
| 2026-04-21 14:34 | 47.91391 | -122.28351 | 571 ft | 13 kts | 359° |
| 2026-04-21 14:34 | 47.91485 | -122.28353 | 573 ft | 14 kts | 359° |
| 2026-04-21 14:34 | 47.91589 | -122.28355 | 572 ft | 15 kts | 359° |
| 2026-04-21 14:35 | 47.91699 | -122.28361 | 568 ft | 17 kts | 353° |
| 2026-04-21 14:35 | 47.91823 | -122.28376 | 568 ft | 18 kts | 355° |
| 2026-04-21 14:35 | 47.91948 | -122.28392 | 573 ft | 18 kts | 355° |
| 2026-04-21 14:35 | 47.92059 | -122.28408 | 575 ft | 13 kts | 354° |
| 2026-04-21 14:36 | 47.92128 | -122.28408 | 568 ft | 10 kts | 15° |
| 2026-04-21 14:36 | 47.92165 | -122.28320 | 568 ft | 11 kts | 81° |
| 2026-04-21 14:36 | 47.92166 | -122.28209 | 568 ft | 11 kts | 95° |
| 2026-04-21 14:36 | 47.92159 | -122.28101 | 568 ft | 10 kts | 98° |
| 2026-04-21 14:37 | 47.92107 | -122.28048 | 573 ft | 10 kts | 179° |
| 2026-04-21 14:37 | 47.92040 | -122.28046 | 574 ft | 9 kts | 179° |
| 2026-04-21 14:37 | 47.92010 | -122.28095 | 568 ft | 7 kts | 263° |
| 2026-04-21 14:37 | 47.92008 | -122.28144 | 568 ft | 0 kts | 268° |